Time;durP1;ratioP1;P1;durP2;ratioP2;P2;SDS_P1;SDS_P2;PMS_P1;PMS_P2;Temp;Humidity;BMP_temperature;BMP_pressure;BME280_temperature;BME280_humidity;BME280_pressure;Samples;Min_cycle;Max_cycle;Signal;HPM_P1;HPM_P2
2021/12/04 00:02:01;;;;;;;33.70;18.23;;;;;;;;;;4973526;28;20029;-63
2021/12/04 00:04:32;;;;;;;33.78;18.50;;;;;;;;;;4973090;28;20054;-63
2021/12/04 00:06:58;;;;;;;33.63;18.65;;;;;;;;;;4972111;28;20471;-64
2021/12/04 00:09:24;;;;;;;34.03;19.50;;;;;;;;;;4973309;28;20829;-64
2021/12/04 00:12:00;;;;;;;39.45;19.08;;;;;;;;;;4973224;28;20062;-63
2021/12/04 00:14:26;;;;;;;36.83;19.08;;;;;;;;;;4973217;28;20479;-63
2021/12/04 00:16:53;;;;;;;40.47;20.52;;;;;;;;;;4973434;28;20038;-63
2021/12/04 00:19:19;;;;;;;41.72;19.98;;;;;;;;;;4973132;28;20027;-63
2021/12/04 00:21:45;;;;;;;34.22;18.35;;;;;;;;;;4972485;28;20058;-63
2021/12/04 00:24:11;;;;;;;34.83;19.30;;;;;;;;;;4972945;28;20073;-65
2021/12/04 00:26:37;;;;;;;38.50;18.52;;;;;;;;;;4972857;28;20046;-62
2021/12/04 00:29:04;;;;;;;36.25;19.58;;;;;;;;;;4972832;28;20023;-63
2021/12/04 00:31:30;;;;;;;37.92;19.48;;;;;;;;;;4972895;28;20078;-63
2021/12/04 00:33:56;;;;;;;33.17;16.88;;;;;;;;;;4972441;28;20065;-63
2021/12/04 00:49:50;;;;;;;38.38;18.27;;;;;;;;;;4972581;28;20158;-63
2021/12/04 00:52:16;;;;;;;35.50;18.50;;;;;;;;;;4972435;28;20031;-64
2021/12/04 00:54:43;;;;;;;32.50;16.48;;;;;;;;;;4972465;28;20046;-62
2021/12/04 00:57:09;;;;;;;31.83;15.55;;;;;;;;;;4972284;28;20363;-62
2021/12/04 00:59:35;;;;;;;32.25;16.90;;;;;;;;;;4972553;28;20030;-64
2021/12/04 01:02:01;;;;;;;29.33;15.75;;;;;;;;;;4972067;28;20098;-65
2021/12/04 01:04:27;;;;;;;24.75;12.52;;;;;;;;;;4970945;28;20058;-65
2021/12/04 01:06:53;;;;;;;27.98;14.80;;;;;;;;;;4972325;28;20066;-65
2021/12/04 01:09:21;;;;;;;27.75;15.05;;;;;;;;;;4972112;28;20043;-65
2021/12/04 01:11:48;;;;;;;27.45;14.05;;;;;;;;;;4972111;28;20494;-65
2021/12/04 01:14:17;;;;;;;25.55;14.05;;;;;;;;;;4972190;28;20023;-67
2021/12/04 01:16:43;;;;;;;24.52;12.40;;;;;;;;;;4972088;28;20102;-68
2021/12/04 01:19:09;;;;;;;25.10;13.10;;;;;;;;;;4972194;28;20039;-66
2021/12/04 01:21:36;;;;;;;24.08;12.77;;;;;;;;;;4971878;28;20039;-63
2021/12/04 01:24:02;;;;;;;28.08;13.32;;;;;;;;;;4970602;28;20038;-63
2021/12/04 01:26:28;;;;;;;25.98;13.27;;;;;;;;;;4972085;28;20046;-63
2021/12/04 01:28:54;;;;;;;26.27;13.35;;;;;;;;;;4971959;28;20110;-63
2021/12/04 01:31:20;;;;;;;24.65;13.43;;;;;;;;;;4972051;28;20031;-63
2021/12/04 01:33:46;;;;;;;26.67;13.18;;;;;;;;;;4972085;28;20027;-63
2021/12/04 01:36:12;;;;;;;24.10;13.23;;;;;;;;;;4972091;28;20097;-63
2021/12/04 01:38:39;;;;;;;28.20;13.70;;;;;;;;;;4971875;28;20019;-63
2021/12/04 01:41:05;;;;;;;28.65;13.63;;;;;;;;;;4971838;28;20510;-63
2021/12/04 01:43:31;;;;;;;28.33;14.02;;;;;;;;;;4971678;28;20034;-63
2021/12/04 01:45:57;;;;;;;27.98;14.32;;;;;;;;;;4971827;28;20034;-63
2021/12/04 01:48:24;;;;;;;26.35;14.52;;;;;;;;;;4971694;28;20037;-62
2021/12/04 01:50:52;;;;;;;27.13;13.65;;;;;;;;;;4971558;28;20102;-63
2021/12/04 01:53:18;;;;;;;25.23;12.77;;;;;;;;;;4971701;28;20110;-62
2021/12/04 01:55:44;;;;;;;27.52;12.75;;;;;;;;;;4971793;28;20027;-65
2021/12/04 01:58:11;;;;;;;23.95;12.55;;;;;;;;;;4971622;28;20034;-64
2021/12/04 02:00:39;;;;;;;29.13;12.75;;;;;;;;;;4971580;28;20471;-63
2021/12/04 02:03:07;;;;;;;25.77;13.32;;;;;;;;;;4971545;28;20557;-62
2021/12/04 02:05:33;;;;;;;23.27;13.13;;;;;;;;;;4971596;28;20027;-62
2021/12/04 02:08:00;;;;;;;25.85;13.25;;;;;;;;;;4971737;28;20154;-65
2021/12/04 02:10:26;;;;;;;27.05;13.25;;;;;;;;;;4971568;28;20027;-64
2021/12/04 02:12:52;;;;;;;22.70;13.18;;;;;;;;;;4971730;28;20058;-62
2021/12/04 02:15:20;;;;;;;27.42;14.38;;;;;;;;;;4974159;28;20402;-62
2021/12/04 02:17:46;;;;;;;21.77;11.32;;;;;;;;;;4974943;28;20038;-62
2021/12/04 02:20:16;;;;;;;28.20;13.45;;;;;;;;;;4975152;28;20423;-62
2021/12/04 02:22:43;;;;;;;26.13;12.80;;;;;;;;;;4974973;28;20054;-62
2021/12/04 02:25:09;;;;;;;23.38;12.57;;;;;;;;;;4974819;28;20027;-62
2021/12/04 02:27:36;;;;;;;23.00;11.40;;;;;;;;;;4975163;28;20041;-62
2021/12/04 02:30:04;;;;;;;21.45;11.20;;;;;;;;;;4975061;28;20026;-62
2021/12/04 02:32:31;;;;;;;21.05;11.45;;;;;;;;;;4974823;28;20467;-62
2021/12/04 02:34:57;;;;;;;21.58;11.23;;;;;;;;;;4974906;28;20390;-67
2021/12/04 02:37:23;;;;;;;26.98;11.73;;;;;;;;;;4974994;28;20470;-63
2021/12/04 02:39:57;;;;;;;20.35;11.40;;;;;;;;;;4974972;28;20058;-64
2021/12/04 02:42:24;;;;;;;21.55;11.50;;;;;;;;;;4974833;28;20379;-63
2021/12/04 02:44:51;;;;;;;21.88;11.60;;;;;;;;;;4973581;28;20471;-62
2021/12/04 02:47:17;;;;;;;22.83;11.40;;;;;;;;;;4974536;28;20034;-62
2021/12/04 02:49:43;;;;;;;20.88;11.80;;;;;;;;;;4974742;28;20034;-63
2021/12/04 02:52:10;;;;;;;25.42;12.43;;;;;;;;;;4974774;28;20483;-63
2021/12/04 02:54:37;;;;;;;25.83;13.13;;;;;;;;;;4974590;28;20038;-62
2021/12/04 02:57:04;;;;;;;24.70;12.48;;;;;;;;;;4974813;28;20415;-62
2021/12/04 02:59:33;;;;;;;29.13;12.90;;;;;;;;;;4974496;28;20027;-62
2021/12/04 03:01:59;;;;;;;25.23;12.98;;;;;;;;;;4975793;28;20054;-63
2021/12/04 03:04:26;;;;;;;26.60;13.48;;;;;;;;;;4975076;28;20408;-63
2021/12/04 03:06:53;;;;;;;25.65;13.50;;;;;;;;;;4975374;28;20039;-62
2021/12/04 03:09:19;;;;;;;23.15;13.40;;;;;;;;;;4974019;28;20015;-64
2021/12/04 03:11:45;;;;;;;24.67;13.27;;;;;;;;;;4974098;28;20031;-63
2021/12/04 03:14:11;;;;;;;25.45;13.38;;;;;;;;;;4972851;28;20482;-63
2021/12/04 03:16:38;;;;;;;23.88;13.00;;;;;;;;;;4974175;28;20035;-63
2021/12/04 03:19:05;;;;;;;26.00;13.10;;;;;;;;;;4974168;28;20078;-63
2021/12/04 03:21:32;;;;;;;27.92;13.70;;;;;;;;;;4973650;28;20090;-64
2021/12/04 03:24:02;;;;;;;24.23;13.45;;;;;;;;;;4974214;28;20113;-63
2021/12/04 03:26:28;;;;;;;26.27;14.13;;;;;;;;;;4973464;28;20042;-63
2021/12/04 03:28:56;;;;;;;26.13;12.63;;;;;;;;;;4974155;28;20030;-63
2021/12/04 03:31:50;;;;;;;23.75;13.32;;;;;;;;;;4973816;28;20019;-63
2021/12/04 03:40:09;;;;;;;25.33;13.02;;;;;;;;;;4974091;28;20029;-63
2021/12/04 03:42:36;;;;;;;24.08;13.40;;;;;;;;;;4972560;28;20368;-62
2021/12/04 03:45:04;;;;;;;26.17;13.35;;;;;;;;;;4973737;28;20054;-63
2021/12/04 03:47:30;;;;;;;22.77;12.85;;;;;;;;;;4974054;28;20118;-64
2021/12/04 03:49:57;;;;;;;29.42;13.55;;;;;;;;;;4974176;28;20124;-66
2021/12/04 03:52:23;;;;;;;25.42;13.70;;;;;;;;;;4973533;28;20046;-64
2021/12/04 03:54:49;;;;;;;27.67;13.77;;;;;;;;;;4971812;28;20518;-63
2021/12/04 03:57:15;;;;;;;25.30;13.73;;;;;;;;;;4972881;28;20106;-63
2021/12/04 03:59:44;;;;;;;29.23;14.73;;;;;;;;;;4973334;28;20541;-63
2021/12/04 04:02:11;;;;;;;25.60;13.65;;;;;;;;;;4973554;28;20037;-64
2021/12/04 04:04:37;;;;;;;24.38;14.27;;;;;;;;;;4973424;28;20027;-63
2021/12/04 04:07:04;;;;;;;24.25;13.75;;;;;;;;;;4973130;28;20133;-64
2021/12/04 04:09:30;;;;;;;23.55;14.10;;;;;;;;;;4973163;28;20033;-63
2021/12/04 04:11:57;;;;;;;23.17;12.95;;;;;;;;;;4972987;28;20399;-62
2021/12/04 04:14:24;;;;;;;24.83;14.63;;;;;;;;;;4973355;28;20082;-66
2021/12/04 04:16:51;;;;;;;27.58;14.30;;;;;;;;;;4973070;28;20023;-65
2021/12/04 04:19:17;;;;;;;24.83;12.90;;;;;;;;;;4972934;28;20045;-65
2021/12/04 04:21:43;;;;;;;26.45;14.65;;;;;;;;;;4972801;28;20047;-68
2021/12/04 04:24:10;;;;;;;25.85;15.57;;;;;;;;;;4972902;28;20117;-65
2021/12/04 04:26:36;;;;;;;29.88;14.00;;;;;;;;;;4972916;28;20047;-65
2021/12/04 04:29:04;;;;;;;29.20;14.50;;;;;;;;;;4972992;28;20027;-63
2021/12/04 04:31:30;;;;;;;26.90;14.52;;;;;;;;;;4972912;28;20049;-62
2021/12/04 04:34:05;;;;;;;26.00;13.57;;;;;;;;;;4972819;28;20111;-65
2021/12/04 05:11:46;;;;;;;27.98;15.25;;;;;;;;;;4972499;28;20085;-68
2021/12/04 05:14:19;;;;;;;25.98;14.15;;;;;;;;;;4972300;28;20490;-68
2021/12/04 05:16:50;;;;;;;;;;;;;;;;;;4972663;28;20019;-61
2021/12/04 05:19:27;;;;;;;25.90;14.07;;;;;;;;;;4972399;28;19910;-62
2021/12/04 05:21:54;;;;;;;26.17;14.50;;;;;;;;;;4971500;28;20129;-62
2021/12/04 05:24:20;;;;;;;26.05;14.23;;;;;;;;;;4972279;28;20039;-62
2021/12/04 05:26:46;;;;;;;30.20;14.63;;;;;;;;;;4971900;28;20463;-64
2021/12/04 05:29:12;;;;;;;29.48;14.10;;;;;;;;;;4971783;28;20037;-61
2021/12/04 05:31:38;;;;;;;31.63;15.63;;;;;;;;;;4971951;28;20100;-68
2021/12/04 05:34:05;;;;;;;24.95;14.55;;;;;;;;;;4972092;28;20459;-65
2021/12/04 05:36:31;;;;;;;30.45;15.18;;;;;;;;;;4972100;28;20031;-65
2021/12/04 05:38:57;;;;;;;29.60;14.35;;;;;;;;;;4972147;28;20042;-67
2021/12/04 05:41:24;;;;;;;27.55;14.27;;;;;;;;;;4971835;28;20443;-64
2021/12/04 05:43:50;;;;;;;31.10;14.63;;;;;;;;;;4971969;28;20030;-66
2021/12/04 05:46:20;;;;;;;30.52;15.40;;;;;;;;;;4972086;28;20110;-68
2021/12/04 05:48:52;;;;;;;27.20;15.10;;;;;;;;;;4973745;28;20026;-68
2021/12/04 05:56:14;;;;;;;28.85;15.90;;;;;;;;;;4976025;28;20033;-66
2021/12/04 05:58:40;;;;;;;27.58;15.50;;;;;;;;;;4968201;28;20050;-64
2021/12/04 06:01:07;;;;;;;34.25;16.77;;;;;;;;;;4965480;28;20030;-68
2021/12/04 06:03:34;;;;;;;27.58;15.10;;;;;;;;;;4963737;28;20030;-67
2021/12/04 06:06:00;;;;;;;31.27;15.63;;;;;;;;;;4965111;28;20043;-67
2021/12/04 06:08:26;;;;;;;31.95;15.55;;;;;;;;;;4965234;28;20035;-63
2021/12/04 06:10:53;;;;;;;30.67;15.07;;;;;;;;;;4963748;28;20114;-68
2021/12/04 06:13:19;;;;;;;28.45;15.07;;;;;;;;;;4965346;28;20032;-65
2021/12/04 06:15:45;;;;;;;26.25;14.77;;;;;;;;;;4964755;28;20174;-63
2021/12/04 06:18:13;;;;;;;30.90;15.13;;;;;;;;;;4963692;28;20034;-67
2021/12/04 06:23:23;;;;;;;30.92;14.77;;;;;;;;;;4960823;28;20054;-63
2021/12/04 06:25:50;;;;;;;30.33;15.35;;;;;;;;;;4955903;28;20110;-66
2021/12/04 06:28:16;;;;;;;28.52;14.95;;;;;;;;;;4955888;28;20535;-66
2021/12/04 06:30:43;;;;;;;31.67;15.48;;;;;;;;;;4955500;28;20106;-66
2021/12/04 06:33:10;;;;;;;28.13;15.02;;;;;;;;;;4955980;28;20039;-67
2021/12/04 06:35:39;;;;;;;30.70;15.52;;;;;;;;;;4955995;28;20026;-67
2021/12/04 06:38:06;;;;;;;30.90;15.05;;;;;;;;;;4955649;28;20054;-66
2021/12/04 06:40:32;;;;;;;30.65;15.82;;;;;;;;;;4955758;28;20027;-69
2021/12/04 06:42:59;;;;;;;33.85;15.10;;;;;;;;;;4955106;28;20427;-59
2021/12/04 06:45:27;;;;;;;32.72;16.25;;;;;;;;;;4956059;28;20808;-62
2021/12/04 06:47:59;;;;;;;29.77;16.00;;;;;;;;;;4956096;28;20042;-63
2021/12/04 06:52:57;;;;;;;26.95;15.50;;;;;;;;;;4955591;28;20031;-68
2021/12/04 06:55:28;;;;;;;28.98;15.27;;;;;;;;;;4955481;28;20463;-68
2021/12/04 06:57:54;;;;;;;25.63;13.90;;;;;;;;;;4956316;28;20035;-68
2021/12/04 07:00:20;;;;;;;26.25;14.30;;;;;;;;;;4973675;28;20029;-71
2021/12/04 07:02:46;;;;;;;29.98;14.80;;;;;;;;;;4974366;28;20034;-71
2021/12/04 07:05:12;;;;;;;24.73;14.55;;;;;;;;;;4974672;28;20034;-70
2021/12/04 07:07:38;;;;;;;23.48;13.73;;;;;;;;;;4974702;28;20093;-71
2021/12/04 07:10:04;;;;;;;28.77;15.02;;;;;;;;;;4974955;28;20059;-72
2021/12/04 07:12:31;;;;;;;23.13;13.45;;;;;;;;;;4969294;28;20039;-67
2021/12/04 07:14:57;;;;;;;29.25;14.13;;;;;;;;;;4974055;28;20494;-66
2021/12/04 07:17:23;;;;;;;25.05;13.07;;;;;;;;;;4974500;28;20478;-63
2021/12/04 07:19:49;;;;;;;22.85;12.52;;;;;;;;;;4973651;28;20034;-63
2021/12/04 07:22:15;;;;;;;24.02;12.70;;;;;;;;;;4973779;28;20483;-69
2021/12/04 07:24:41;;;;;;;25.15;13.05;;;;;;;;;;4974477;28;20110;-67
2021/12/04 07:27:07;;;;;;;21.42;12.63;;;;;;;;;;4971399;28;20035;-65
2021/12/04 07:29:33;;;;;;;24.88;12.75;;;;;;;;;;4956600;28;20027;-64
2021/12/04 07:31:59;;;;;;;29.83;14.85;;;;;;;;;;4954968;29;20028;-68
2021/12/04 07:34:25;;;;;;;30.48;17.52;;;;;;;;;;4954707;29;20098;-67
2021/12/04 07:36:51;;;;;;;28.33;15.52;;;;;;;;;;4954767;28;20038;-67
2021/12/04 07:39:17;;;;;;;26.20;13.50;;;;;;;;;;4954929;28;20032;-65
2021/12/04 07:41:43;;;;;;;25.98;13.65;;;;;;;;;;4954668;28;20052;-71
2021/12/04 07:44:10;;;;;;;28.40;14.50;;;;;;;;;;4954552;29;20023;-67
2021/12/04 07:46:39;;;;;;;43.20;21.02;;;;;;;;;;4954659;28;20027;-71
2021/12/04 07:49:06;;;;;;;31.55;16.50;;;;;;;;;;4954610;29;20054;-69
2021/12/04 07:51:32;;;;;;;31.40;15.25;;;;;;;;;;4954344;28;20338;-67
2021/12/04 07:53:58;;;;;;;45.47;20.92;;;;;;;;;;4954540;29;20035;-68
2021/12/04 07:56:24;;;;;;;38.33;19.70;;;;;;;;;;4954212;29;20442;-67
2021/12/04 07:58:51;;;;;;;39.80;19.70;;;;;;;;;;4954431;29;20131;-67
2021/12/04 08:01:17;;;;;;;36.47;18.42;;;;;;;;;;4954171;28;20118;-71
2021/12/04 08:03:43;;;;;;;34.50;18.10;;;;;;;;;;4953934;29;20479;-67
2021/12/04 08:06:09;;;;;;;30.25;16.63;;;;;;;;;;4953944;29;20488;-70
2021/12/04 08:08:35;;;;;;;29.38;15.65;;;;;;;;;;4953968;29;20034;-69
2021/12/04 08:11:03;;;;;;;36.63;18.13;;;;;;;;;;4954007;28;20054;-68
2021/12/04 08:13:30;;;;;;;34.72;19.50;;;;;;;;;;4953967;28;20047;-66
2021/12/04 08:15:56;;;;;;;32.45;18.15;;;;;;;;;;4953854;28;20126;-68
2021/12/04 08:18:23;;;;;;;28.45;16.40;;;;;;;;;;4953896;29;20094;-68
2021/12/04 08:20:49;;;;;;;30.42;16.02;;;;;;;;;;4953703;28;20043;-71
2021/12/04 08:23:16;;;;;;;41.75;21.85;;;;;;;;;;4953469;29;20118;-67
2021/12/04 08:25:42;;;;;;;54.33;28.30;;;;;;;;;;4953616;29;20123;-70
2021/12/04 08:28:08;;;;;;;63.00;32.35;;;;;;;;;;4954063;29;20435;-70
2021/12/04 08:30:39;;;;;;;71.38;37.17;;;;;;;;;;4953947;29;20023;-69
2021/12/04 08:33:05;;;;;;;56.75;31.00;;;;;;;;;;4953653;29;20030;-68
2021/12/04 08:35:39;;;;;;;57.08;31.40;;;;;;;;;;4953822;28;20165;-69
2021/12/04 08:38:05;;;;;;;70.32;37.00;;;;;;;;;;4953770;28;20155;-68
2021/12/04 08:40:31;;;;;;;71.88;36.78;;;;;;;;;;4953505;29;20110;-65
2021/12/04 08:42:57;;;;;;;65.78;34.97;;;;;;;;;;4953425;29;20027;-69
2021/12/04 08:45:24;;;;;;;53.97;30.20;;;;;;;;;;4953347;28;20034;-70
2021/12/04 08:47:50;;;;;;;54.13;28.30;;;;;;;;;;4953516;29;20063;-64
2021/12/04 08:50:18;;;;;;;56.70;27.92;;;;;;;;;;4953038;28;20027;-65
2021/12/04 08:52:44;;;;;;;60.45;30.02;;;;;;;;;;4951951;29;20067;-68
2021/12/04 08:55:11;;;;;;;58.83;31.75;;;;;;;;;;4953379;29;20478;-68
2021/12/04 08:57:38;;;;;;;68.63;34.35;;;;;;;;;;4953200;29;20031;-68
2021/12/04 09:00:06;;;;;;;71.22;34.85;;;;;;;;;;4951851;29;20121;-69
2021/12/04 09:02:32;;;;;;;61.97;32.50;;;;;;;;;;4953374;29;20027;-68
2021/12/04 09:04:59;;;;;;;59.78;33.72;;;;;;;;;;4952953;29;20390;-63
2021/12/04 09:07:25;;;;;;;63.15;33.25;;;;;;;;;;4953239;29;20399;-66
2021/12/04 09:09:55;;;;;;;59.45;30.52;;;;;;;;;;4953080;29;20030;-68
2021/12/04 09:12:22;;;;;;;57.83;29.40;;;;;;;;;;4952959;29;20023;-69
2021/12/04 09:14:50;;;;;;;59.85;31.08;;;;;;;;;;4952899;28;20035;-69
2021/12/04 09:17:16;;;;;;;43.33;24.25;;;;;;;;;;4952910;29;20031;-69
2021/12/04 09:19:43;;;;;;;46.60;24.70;;;;;;;;;;4952565;28;20039;-69
2021/12/04 09:22:16;;;;;;;41.80;22.85;;;;;;;;;;4952425;28;20492;-70
2021/12/04 09:24:44;;;;;;;;;;;;;;;;;;4952917;28;20034;-62
2021/12/04 09:27:34;;;;;;;40.97;22.60;;;;;;;;;;4952843;28;20020;-64
2021/12/04 10:34:35;;;;;;;44.20;21.85;;;;;;;;;;4952550;28;20035;-69
2021/12/04 10:37:09;;;;;;;40.58;23.77;;;;;;;;;;4956001;28;20368;-70
2021/12/04 10:39:36;;;;;;;41.22;22.90;;;;;;;;;;4955811;29;20031;-69
2021/12/04 10:42:05;;;;;;;44.95;24.23;;;;;;;;;;4955370;28;20027;-70
2021/12/04 10:44:31;;;;;;;44.20;23.90;;;;;;;;;;4955610;28;20020;-70
2021/12/04 10:47:05;;;;;;;46.58;24.27;;;;;;;;;;4955308;29;20042;-72
2021/12/04 10:52:22;;;;;;;39.22;23.20;;;;;;;;;;4955519;28;20039;-70
2021/12/04 10:54:53;;;;;;;40.83;22.07;;;;;;;;;;4955274;29;20030;-70
2021/12/04 11:00:07;;;;;;;45.70;24.45;;;;;;;;;;4955433;28;20046;-64
2021/12/04 11:02:38;;;;;;;41.92;23.42;;;;;;;;;;4955455;29;20483;-64
2021/12/04 11:18:37;;;;;;;40.55;24.67;;;;;;;;;;4955168;29;20066;-64
2021/12/04 11:19:21;;;;;;;48.20;25.55;;;;;;;;;;4952797;29;20094;-63
2021/12/04 11:22:17;;;;;;;48.83;27.88;;;;;;;;;;4952260;28;20055;-62
2021/12/04 11:42:57;;;;;;;53.47;30.48;;;;;;;;;;4952183;29;20106;-64
2021/12/04 11:45:28;;;;;;;51.47;29.52;;;;;;;;;;4951976;28;20541;-65
2021/12/04 11:48:01;;;;;;;54.08;29.33;;;;;;;;;;4951773;29;20074;-64
2021/12/04 11:50:27;;;;;;;;;;;;;;;;;;4952255;29;20039;-62
2021/12/04 11:52:55;;;;;;;48.80;29.67;;;;;;;;;;4952574;29;19922;-65
2021/12/04 11:55:23;;;;;;;57.60;30.08;;;;;;;;;;4954367;28;20106;-64
2021/12/04 11:57:49;;;;;;;56.85;31.42;;;;;;;;;;4952742;29;20035;-63
2021/12/04 12:00:26;;;;;;;53.65;29.35;;;;;;;;;;4954178;29;20030;-66
2021/12/04 12:02:53;;;;;;;53.38;30.20;;;;;;;;;;4954120;29;20110;-67
2021/12/04 12:05:22;;;;;;;49.90;29.60;;;;;;;;;;4954036;29;20027;-68
2021/12/04 12:07:54;;;;;;;47.35;28.67;;;;;;;;;;4953987;28;20035;-68
2021/12/04 12:10:21;;;;;;;53.13;31.40;;;;;;;;;;4954240;29;20027;-68
2021/12/04 12:12:48;;;;;;;55.05;31.30;;;;;;;;;;4953766;28;20403;-63
2021/12/04 12:15:31;;;;;;;56.45;31.48;;;;;;;;;;4953986;29;20038;-63
2021/12/04 12:17:58;;;;;;;57.85;32.97;;;;;;;;;;4954091;29;20507;-68
2021/12/04 12:23:13;;;;;;;61.13;35.20;;;;;;;;;;4953970;28;20065;-68
2021/12/04 12:34:16;;;;;;;66.60;34.58;;;;;;;;;;4953593;29;20083;-69
2021/12/04 12:36:42;;;;;;;61.72;34.67;;;;;;;;;;4953518;28;20030;-68
2021/12/04 12:39:09;;;;;;;60.30;34.22;;;;;;;;;;4953408;29;20027;-69
2021/12/04 12:41:37;;;;;;;61.97;33.60;;;;;;;;;;4953212;29;20459;-68
2021/12/04 12:44:09;;;;;;;59.25;32.03;;;;;;;;;;4953630;28;20475;-71
2021/12/04 12:46:44;;;;;;;65.45;32.53;;;;;;;;;;4953298;29;20071;-70
2021/12/04 12:49:22;;;;;;;63.47;34.60;;;;;;;;;;4952058;29;20024;-68
2021/12/04 12:51:57;;;;;;;61.15;33.03;;;;;;;;;;4953186;29;20034;-68
2021/12/04 12:54:25;;;;;;;64.78;30.92;;;;;;;;;;4953313;28;20035;-65
2021/12/04 12:56:58;;;;;;;57.38;30.35;;;;;;;;;;4953519;29;20067;-69
2021/12/04 12:59:55;;;;;;;58.30;31.48;;;;;;;;;;4952621;28;20036;-70
2021/12/04 13:13:30;;;;;;;56.00;30.08;;;;;;;;;;4953248;29;20087;-69
2021/12/04 13:16:03;;;;;;;58.00;31.52;;;;;;;;;;4953039;28;20035;-71
2021/12/04 13:18:32;;;;;;;58.42;33.78;;;;;;;;;;4953480;28;20074;-64
2021/12/04 13:21:00;;;;;;;62.50;33.28;;;;;;;;;;4952889;28;20046;-68
2021/12/04 13:23:26;;;;;;;58.60;33.63;;;;;;;;;;4952916;29;20038;-69
2021/12/04 13:25:55;;;;;;;64.95;33.05;;;;;;;;;;4952927;28;20379;-69
2021/12/04 13:28:23;;;;;;;62.25;32.60;;;;;;;;;;4952663;28;20543;-70
2021/12/04 13:30:49;;;;;;;57.05;30.02;;;;;;;;;;4952674;29;20387;-70
2021/12/04 13:33:15;;;;;;;54.28;30.75;;;;;;;;;;4952622;29;20035;-70
2021/12/04 13:35:46;;;;;;;62.88;32.75;;;;;;;;;;4952678;29;20376;-70
2021/12/04 13:38:13;;;;;;;59.28;31.45;;;;;;;;;;4952923;29;20027;-66
2021/12/04 13:40:39;;;;;;;55.28;31.67;;;;;;;;;;4952573;29;20114;-70
2021/12/04 13:43:12;;;;;;;61.67;32.63;;;;;;;;;;4952672;29;20054;-71
2021/12/04 13:45:38;;;;;;;60.00;33.55;;;;;;;;;;4952315;29;20031;-68
2021/12/04 13:48:05;;;;;;;68.93;35.53;;;;;;;;;;4952658;29;20039;-70
2021/12/04 13:53:00;;;;;;;68.90;36.78;;;;;;;;;;4952699;29;20047;-69
2021/12/04 13:55:27;;;;;;;68.80;36.00;;;;;;;;;;4952493;28;20019;-70
2021/12/04 13:57:54;;;;;;;70.80;37.22;;;;;;;;;;4952842;29;20036;-65
2021/12/04 14:00:20;;;;;;;60.75;33.75;;;;;;;;;;4952605;28;20070;-69
2021/12/04 14:02:46;;;;;;;58.55;33.05;;;;;;;;;;4952419;29;20035;-68
2021/12/04 14:05:21;;;;;;;67.13;34.97;;;;;;;;;;4952489;29;20550;-70
2021/12/04 14:07:52;;;;;;;65.60;35.05;;;;;;;;;;4952341;28;20071;-69
2021/12/04 14:10:26;;;;;;;68.25;34.92;;;;;;;;;;4955185;28;20023;-69
2021/12/04 14:12:54;;;;;;;64.28;34.17;;;;;;;;;;4956251;28;20034;-68
2021/12/04 14:15:21;;;;;;;63.67;34.35;;;;;;;;;;4956257;28;20020;-70
2021/12/04 14:17:49;;;;;;;65.90;34.55;;;;;;;;;;4956175;29;20505;-69
2021/12/04 14:20:19;;;;;;;61.03;34.13;;;;;;;;;;4954211;29;20038;-65
2021/12/04 14:22:47;;;;;;;66.80;34.85;;;;;;;;;;4955294;28;20088;-68
2021/12/04 14:25:13;;;;;;;65.32;34.22;;;;;;;;;;4956151;29;20131;-69
2021/12/04 14:27:39;;;;;;;64.57;33.00;;;;;;;;;;4956080;29;20106;-69
2021/12/04 14:30:10;;;;;;;60.42;31.85;;;;;;;;;;4955698;28;20030;-65
2021/12/04 14:32:39;;;;;;;57.58;30.05;;;;;;;;;;4955656;29;20078;-69
2021/12/04 14:35:15;;;;;;;58.85;31.50;;;;;;;;;;4955707;28;20106;-71
2021/12/04 14:37:43;;;;;;;56.67;29.73;;;;;;;;;;4955588;29;20079;-69
2021/12/04 14:40:17;;;;;;;53.17;29.20;;;;;;;;;;4955523;29;20387;-69
2021/12/04 14:42:43;;;;;;;61.90;31.02;;;;;;;;;;4955496;29;20027;-65
2021/12/04 14:45:14;;;;;;;65.22;33.05;;;;;;;;;;4955444;28;20034;-69
2021/12/04 14:47:52;;;;;;;57.85;32.42;;;;;;;;;;4955787;28;20126;-69
2021/12/04 14:50:20;;;;;;;59.20;34.30;;;;;;;;;;4955546;29;20032;-68
2021/12/04 14:52:51;;;;;;;64.13;34.80;;;;;;;;;;4955684;28;20151;-68
2021/12/04 14:55:17;;;;;;;69.32;36.80;;;;;;;;;;4955747;28;20020;-69
2021/12/04 14:57:43;;;;;;;62.40;34.80;;;;;;;;;;4955492;29;20051;-66
2021/12/04 15:00:12;;;;;;;69.00;36.67;;;;;;;;;;4955382;28;20031;-71
2021/12/04 15:02:38;;;;;;;65.55;35.65;;;;;;;;;;4955105;28;20035;-65
2021/12/04 15:05:05;;;;;;;68.13;35.78;;;;;;;;;;4955638;29;20031;-70
2021/12/04 15:07:33;;;;;;;67.20;35.60;;;;;;;;;;4955438;28;20038;-64
2021/12/04 15:10:18;;;;;;;75.80;37.67;;;;;;;;;;4955475;29;20030;-70
2021/12/04 15:12:44;;;;;;;76.57;37.97;;;;;;;;;;4954942;29;20027;-70
2021/12/04 15:15:11;;;;;;;68.75;37.55;;;;;;;;;;4954682;28;20356;-68
2021/12/04 15:17:41;;;;;;;71.65;36.58;;;;;;;;;;4954931;29;20488;-69
2021/12/04 15:20:17;;;;;;;69.85;36.20;;;;;;;;;;4954967;28;20122;-66
2021/12/04 15:22:45;;;;;;;70.95;36.88;;;;;;;;;;4954278;28;20048;-68
2021/12/04 15:25:13;;;;;;;65.78;35.67;;;;;;;;;;4954620;29;20066;-71
2021/12/04 15:27:40;;;;;;;74.15;36.83;;;;;;;;;;4954579;29;20035;-69
2021/12/04 15:30:09;;;;;;;70.78;36.75;;;;;;;;;;4954788;28;20025;-64
2021/12/04 15:32:38;;;;;;;67.65;35.72;;;;;;;;;;4954840;28;20028;-70
2021/12/04 15:35:24;;;;;;;69.80;36.22;;;;;;;;;;4954481;28;20027;-71
2021/12/04 15:37:57;;;;;;;67.93;36.20;;;;;;;;;;4954953;29;20106;-69
2021/12/04 15:40:34;;;;;;;73.05;35.65;;;;;;;;;;4954394;29;20065;-67
2021/12/04 15:43:24;;;;;;;70.43;37.08;;;;;;;;;;4954715;28;20023;-71
2021/12/04 15:46:09;;;;;;;70.93;35.60;;;;;;;;;;4954461;29;20513;-66
2021/12/04 15:51:43;;;;;;;57.17;30.70;;;;;;;;;;4954294;28;20256;-71
2021/12/04 15:54:08;;;;;;;61.47;32.28;;;;;;;;;;4953911;29;20503;-70
2021/12/04 15:56:47;;;;;;;61.22;31.65;;;;;;;;;;4953899;29;20196;-72
2021/12/04 15:59:31;;;;;;;58.70;31.08;;;;;;;;;;4953880;28;20027;-69
2021/12/04 16:01:58;;;;;;;55.75;30.40;;;;;;;;;;4953648;29;20031;-69
2021/12/04 16:04:32;;;;;;;53.70;29.02;;;;;;;;;;4953666;29;20039;-71
2021/12/04 16:06:59;;;;;;;50.13;28.30;;;;;;;;;;4953629;29;20487;-64
2021/12/04 16:09:31;;;;;;;51.22;27.05;;;;;;;;;;4953066;28;20472;-64
2021/12/04 16:12:02;;;;;;;52.22;27.73;;;;;;;;;;4964686;28;20058;-59
2021/12/04 16:14:32;;;;;;;53.35;27.90;;;;;;;;;;4971294;28;20338;-63
2021/12/04 16:16:59;;;;;;;53.28;29.08;;;;;;;;;;4953982;28;20115;-68
2021/12/04 16:19:27;;;;;;;51.58;27.88;;;;;;;;;;4953797;28;20027;-65
2021/12/04 16:21:59;;;;;;;53.58;28.58;;;;;;;;;;4963613;28;20046;-66
2021/12/04 16:24:26;;;;;;;54.92;29.30;;;;;;;;;;4962943;28;20030;-69
2021/12/04 16:26:57;;;;;;;58.42;30.90;;;;;;;;;;4966124;28;20089;-65
2021/12/04 16:29:25;;;;;;;59.83;31.90;;;;;;;;;;4957750;28;20023;-63
2021/12/04 16:39:54;;;;;;;66.93;33.97;;;;;;;;;;4941113;29;20142;-61
2021/12/04 16:42:20;;;;;;;61.40;31.77;;;;;;;;;;4938565;29;20039;-62
2021/12/04 16:44:46;;;;;;;64.63;32.78;;;;;;;;;;4942462;29;20024;-61
2021/12/04 16:47:12;;;;;;;65.07;34.75;;;;;;;;;;4936517;29;20495;-62
2021/12/04 16:49:39;;;;;;;62.28;32.70;;;;;;;;;;4938896;29;20047;-62
2021/12/04 16:57:25;;;;;;;62.75;33.03;;;;;;;;;;4937930;28;20040;-64
2021/12/04 16:59:53;;;;;;;66.10;32.45;;;;;;;;;;4931224;29;20551;-63
2021/12/04 17:02:20;;;;;;;62.08;32.05;;;;;;;;;;4937182;28;20059;-64
2021/12/04 17:04:47;;;;;;;62.95;32.03;;;;;;;;;;4945801;28;20042;-67
2021/12/04 17:07:13;;;;;;;58.33;31.00;;;;;;;;;;4936159;29;20050;-67
2021/12/04 17:09:39;;;;;;;62.75;32.15;;;;;;;;;;4950368;28;20043;-62
2021/12/04 17:12:06;;;;;;;59.10;31.90;;;;;;;;;;4942286;29;20392;-67
2021/12/04 17:14:32;;;;;;;58.17;32.78;;;;;;;;;;4943904;28;20031;-66
2021/12/04 17:16:59;;;;;;;59.65;32.95;;;;;;;;;;4960785;28;20035;-65
2021/12/04 17:19:26;;;;;;;60.58;33.28;;;;;;;;;;4961867;28;20094;-65
2021/12/04 17:21:53;;;;;;;60.28;31.95;;;;;;;;;;4961285;28;20046;-69
2021/12/04 17:24:23;;;;;;;55.75;30.92;;;;;;;;;;4957435;28;20172;-68
2021/12/04 17:26:51;;;;;;;54.63;30.20;;;;;;;;;;4961386;28;20047;-72
2021/12/04 17:29:17;;;;;;;54.08;30.70;;;;;;;;;;4959414;28;20026;-69
2021/12/04 17:31:44;;;;;;;54.03;30.35;;;;;;;;;;4969760;28;20093;-66
2021/12/04 17:34:11;;;;;;;55.58;29.95;;;;;;;;;;4971748;28;20035;-72
2021/12/04 17:36:37;;;;;;;55.30;29.80;;;;;;;;;;4971867;28;20109;-71
2021/12/04 17:39:09;;;;;;;52.85;29.30;;;;;;;;;;4968123;28;20402;-68
2021/12/04 17:41:35;;;;;;;44.63;22.57;;;;;;;;;;4990636;28;20034;-70
2021/12/04 17:44:03;;;;;;;57.67;30.50;;;;;;;;;;4991757;28;20389;-66
2021/12/04 17:46:30;;;;;;;63.15;31.55;;;;;;;;;;4994148;28;20490;-64
2021/12/04 17:48:59;;;;;;;60.55;30.45;;;;;;;;;;4994219;28;20125;-73
2021/12/04 17:51:25;;;;;;;64.53;32.25;;;;;;;;;;4978222;28;20780;-67